Terminal Aerodrome Forecast
Issued by NWS

Home | Current Version | Previous Version | Text Only | Print | Product List | Glossary On
Versions: 1 2 3 4 5 6 7 8 9 10 11 12 13 14
239
FTUS41 KILN 252325
TAFLCK
TAF
KLCK 252325Z 2600/2624 14005KT P6SM BKN150
     FM261000 15006KT P6SM VCSH OVC080
     FM261200 15006KT 6SM -SHRA OVC050
     FM261500 17010KT 4SM -SHRA VCTS OVC025CB
     FM262100 19008KT P6SM -SHRA VCTS OVC050CB=

USA.gov is the U.S. government's official web portal to all federal, state and local government web resources and services.